createdAt,value
2022-10-26T00:00:29.434Z,8.03
2022-10-26T00:04:11.201Z,11.97
2022-10-26T00:07:52.961Z,10.63
2022-10-26T00:11:34.737Z,12.87
2022-10-26T00:15:17.407Z,9.57
2022-10-26T00:19:00.305Z,10.73
2022-10-26T00:22:42.129Z,11.70
2022-10-26T00:26:26.192Z,7.87
2022-10-26T00:30:08.489Z,15.73
2022-10-26T00:33:54.956Z,6.20
2022-10-26T00:37:37.027Z,14.60
2022-10-26T00:41:31.127Z,15.17
2022-10-26T00:45:28.259Z,10.03
2022-10-26T00:49:16.831Z,10.43
2022-10-26T00:53:00.956Z,14.67
2022-10-26T00:56:42.833Z,12.17
2022-10-26T01:00:24.684Z,10.77
2022-10-26T01:04:06.931Z,11.63
2022-10-26T01:07:49.255Z,11.93
2022-10-26T01:11:31.476Z,12.90
2022-10-26T01:15:13.787Z,9.97
2022-10-26T01:19:27.982Z,12.93
2022-10-26T01:23:19.072Z,13.33
2022-10-26T01:27:25.259Z,14.43
2022-10-26T01:31:11.557Z,14.47
2022-10-26T01:35:17.926Z,14.27
2022-10-26T01:39:13.712Z,12.00
2022-10-26T01:42:59.121Z,11.43
2022-10-26T01:46:45.198Z,13.27
2022-10-26T01:50:27.705Z,10.83
2022-10-26T01:54:09.732Z,12.13
2022-10-26T01:57:52.682Z,7.10
2022-10-26T02:01:44.380Z,11.67
2022-10-26T02:05:52.554Z,8.23
2022-10-26T02:10:00.037Z,8.03
2022-10-26T02:13:51.893Z,5.57
2022-10-26T02:17:42.048Z,6.10
2022-10-26T02:25:16.275Z,8.33
2022-10-26T02:29:04.214Z,9.73
2022-10-26T02:32:50.758Z,8.30
2022-10-26T02:36:36.198Z,12.23
2022-10-26T02:40:22.451Z,12.30
2022-10-26T02:44:23.206Z,9.60
2022-10-26T02:48:07.033Z,14.17
2022-10-26T02:52:03.313Z,8.40
2022-10-26T02:55:50.406Z,9.83
2022-10-26T02:59:36.466Z,11.23
2022-10-26T03:03:20.865Z,12.10
2022-10-26T03:07:02.663Z,13.77
2022-10-26T03:10:46.140Z,12.10
2022-10-26T03:14:27.826Z,15.07
2022-10-26T03:18:09.718Z,17.10
2022-10-26T03:21:51.518Z,20.57
2022-10-26T03:25:33.314Z,11.37
2022-10-26T03:29:15.152Z,13.70
2022-10-26T03:32:57.454Z,18.40
2022-10-26T03:36:39.142Z,13.53
2022-10-26T03:40:21.013Z,14.80
2022-10-26T03:44:02.713Z,16.00
2022-10-26T03:47:49.220Z,12.13
2022-10-26T03:51:31.302Z,15.13
2022-10-26T03:55:13.097Z,18.97
2022-10-26T03:58:55.127Z,19.93
2022-10-26T04:02:36.890Z,16.60
2022-10-26T04:06:18.677Z,17.93
2022-10-26T04:10:00.523Z,15.07
2022-10-26T04:13:42.542Z,14.90
2022-10-26T04:17:25.113Z,19.27
2022-10-26T04:21:08.161Z,14.67
2022-10-26T04:24:54.494Z,16.77
2022-10-26T04:28:36.281Z,17.17
2022-10-26T04:32:18.439Z,15.33
2022-10-26T04:36:03.910Z,14.60
2022-10-26T04:39:45.791Z,15.23
2022-10-26T04:43:27.691Z,18.63
2022-10-26T04:47:09.458Z,13.13
2022-10-26T04:51:01.233Z,19.17
2022-10-26T04:54:43.137Z,17.90
2022-10-26T04:58:25.114Z,17.87
2022-10-26T05:02:06.909Z,13.83
2022-10-26T05:05:48.816Z,20.87
2022-10-26T05:09:30.650Z,14.27
2022-10-26T05:13:12.386Z,16.83
2022-10-26T05:16:55.915Z,12.17
2022-10-26T05:20:37.782Z,17.50
2022-10-26T05:24:20.123Z,17.77
2022-10-26T05:28:04.502Z,14.13
2022-10-26T05:31:46.348Z,17.13
2022-10-26T05:35:28.102Z,19.20
2022-10-26T05:39:09.895Z,16.13
2022-10-26T05:42:52.215Z,15.97
2022-10-26T05:46:34.232Z,17.97
2022-10-26T05:50:16.103Z,19.00
2022-10-26T05:53:57.838Z,17.60
2022-10-26T05:57:40.152Z,19.50
2022-10-26T06:01:32.556Z,19.87
2022-10-26T06:05:22.401Z,17.47
2022-10-26T06:09:04.425Z,21.50
2022-10-26T06:12:46.820Z,27.93
2022-10-26T06:17:10.955Z,17.27
2022-10-26T06:20:55.695Z,20.60
2022-10-26T06:25:15.239Z,17.83
2022-10-26T06:29:22.354Z,11.60
2022-10-26T06:33:06.717Z,12.83
2022-10-26T06:37:02.383Z,10.43
2022-10-26T06:40:46.555Z,23.47
2022-10-26T06:44:28.693Z,21.00
2022-10-26T06:48:16.280Z,17.37
2022-10-26T06:52:01.946Z,20.93
2022-10-26T06:55:47.217Z,22.50
2022-10-26T06:59:38.853Z,18.73
2022-10-26T07:03:20.683Z,17.70
2022-10-26T07:07:02.730Z,19.00
2022-10-26T07:10:44.940Z,23.73
2022-10-26T07:14:26.672Z,20.63
2022-10-26T07:18:08.820Z,20.10
2022-10-26T07:21:50.831Z,22.87
2022-10-26T07:25:33.625Z,23.87
2022-10-26T07:29:18.074Z,22.97
2022-10-26T07:33:04.954Z,22.63
2022-10-26T07:36:46.692Z,20.43
2022-10-26T07:40:29.405Z,25.13
2022-10-26T07:44:11.083Z,16.70
2022-10-26T07:47:52.869Z,18.97
2022-10-26T07:51:34.606Z,23.60
2022-10-26T07:55:16.519Z,19.60
2022-10-26T07:58:58.365Z,20.73
2022-10-26T08:02:40.681Z,20.43
2022-10-26T08:06:23.366Z,13.03
2022-10-26T08:10:05.455Z,17.50
2022-10-26T08:17:31.255Z,13.07
2022-10-26T08:21:21.630Z,12.27
2022-10-26T08:25:08.154Z,10.57
2022-10-26T08:28:50.281Z,7.43
2022-10-26T08:32:32.027Z,7.90
2022-10-26T08:36:19.828Z,11.07
2022-10-26T08:40:03.082Z,11.30
2022-10-26T08:43:56.448Z,10.27
2022-10-26T08:47:44.962Z,8.03
2022-10-26T08:51:35.489Z,13.70
2022-10-26T08:59:28.642Z,17.80
2022-10-26T09:03:18.170Z,11.10
2022-10-26T09:07:34.003Z,15.10
2022-10-26T09:11:44.162Z,11.67
2022-10-26T09:15:32.125Z,14.13
2022-10-26T09:20:11.023Z,12.53
2022-10-26T09:24:14.327Z,13.17
2022-10-26T09:28:00.927Z,14.80
2022-10-26T09:31:45.288Z,16.23
2022-10-26T09:35:44.940Z,13.90
2022-10-26T09:39:38.526Z,13.40
2022-10-26T09:43:40.581Z,17.50
2022-10-26T09:47:25.123Z,14.83
2022-10-26T09:51:07.214Z,13.90
2022-10-26T09:54:49.133Z,11.23
2022-10-26T09:58:36.939Z,14.53
2022-10-26T10:02:44.156Z,11.43
2022-10-26T10:06:27.446Z,12.90
2022-10-26T10:10:22.634Z,16.07
2022-10-26T10:14:15.158Z,11.87
2022-10-26T10:17:59.638Z,13.87
2022-10-26T10:21:48.540Z,14.13
2022-10-26T10:25:35.242Z,11.23
2022-10-26T10:29:16.997Z,15.07
2022-10-26T10:33:07.610Z,11.67
2022-10-26T10:36:51.644Z,12.33
2022-10-26T10:40:33.472Z,12.43
2022-10-26T10:44:25.799Z,11.23
2022-10-26T10:48:13.357Z,11.47
2022-10-26T10:51:56.842Z,12.43
2022-10-26T10:55:39.535Z,15.60
2022-10-26T10:59:44.240Z,14.23
2022-10-26T11:03:50.843Z,19.73
2022-10-26T11:07:45.137Z,15.10
2022-10-26T11:11:48.825Z,14.03
2022-10-26T11:15:35.153Z,12.57
2022-10-26T11:19:27.125Z,13.40
2022-10-26T11:23:16.726Z,13.13
2022-10-26T11:27:12.658Z,23.67
2022-10-26T11:31:01.969Z,21.93
2022-10-26T11:34:52.258Z,19.13
2022-10-26T11:38:56.904Z,22.40
2022-10-26T11:42:48.532Z,19.07
2022-10-26T11:46:56.985Z,16.70
2022-10-26T11:51:00.260Z,15.90
2022-10-26T11:54:45.725Z,21.58
2022-10-26T11:58:28.407Z,18.17
2022-10-26T12:02:19.819Z,12.20
2022-10-26T12:06:01.692Z,14.32
2022-10-26T12:09:45.363Z,15.97
2022-10-26T12:13:45.629Z,18.07
2022-10-26T12:17:38.756Z,16.57
2022-10-26T12:21:21.157Z,18.87
2022-10-26T12:25:15.608Z,21.43
2022-10-26T12:29:03.769Z,21.43
2022-10-26T12:32:45.573Z,16.60
2022-10-26T12:36:59.794Z,17.57
2022-10-26T12:40:43.871Z,16.97
2022-10-26T12:44:45.699Z,18.30
2022-10-26T12:48:40.487Z,13.93
2022-10-26T12:52:28.171Z,11.90
2022-10-26T12:56:18.259Z,16.92
2022-10-26T13:00:05.930Z,16.27
2022-10-26T13:04:04.636Z,13.68
2022-10-26T13:07:46.941Z,18.55
2022-10-26T13:11:35.106Z,19.13
2022-10-26T13:15:27.288Z,12.75
2022-10-26T13:19:24.599Z,17.40
2022-10-26T13:23:31.275Z,16.58
2022-10-26T13:27:13.175Z,12.95
2022-10-26T13:30:55.034Z,15.73
2022-10-26T13:34:42.541Z,17.27
2022-10-26T13:38:29.958Z,17.92
2022-10-26T13:42:21.580Z,15.57
2022-10-26T13:46:04.685Z,17.40
2022-10-26T13:49:51.101Z,14.23
2022-10-26T13:54:02.569Z,15.02
2022-10-26T13:57:51.366Z,20.58
2022-10-26T14:01:34.217Z,16.90
2022-10-26T14:05:18.643Z,23.83
2022-10-26T14:09:16.939Z,23.50
2022-10-26T14:12:59.332Z,21.40
2022-10-26T14:16:46.604Z,21.40
2022-10-26T14:20:30.208Z,30.67
2022-10-26T14:24:27.501Z,21.30
2022-10-26T14:28:30.604Z,22.37
2022-10-26T14:32:22.714Z,27.70
2022-10-26T14:36:05.736Z,26.17
2022-10-26T14:39:47.867Z,18.80
2022-10-26T14:43:31.369Z,20.67
2022-10-26T14:47:25.318Z,18.27
2022-10-26T14:51:23.672Z,20.80
2022-10-26T14:55:14.843Z,22.70
2022-10-26T14:58:58.487Z,23.27
2022-10-26T15:02:40.938Z,26.90
2022-10-26T15:06:28.915Z,23.83
2022-10-26T15:10:39.998Z,28.77
2022-10-26T15:14:22.118Z,34.40
2022-10-26T15:18:05.666Z,27.90
2022-10-26T15:21:51.124Z,24.77
2022-10-26T15:25:34.689Z,20.47
2022-10-26T15:29:35.003Z,28.00
2022-10-26T15:33:22.381Z,28.55
2022-10-26T15:37:04.475Z,28.03
2022-10-26T15:40:47.718Z,29.07
2022-10-26T15:44:29.695Z,30.10
2022-10-26T15:48:19.601Z,30.83
2022-10-26T15:52:01.603Z,25.23
2022-10-26T15:55:43.613Z,28.87
2022-10-26T15:59:25.645Z,26.73
2022-10-26T16:03:13.490Z,37.73
2022-10-26T16:06:59.476Z,31.30
2022-10-26T16:10:41.373Z,26.40
2022-10-26T16:14:23.427Z,33.70
2022-10-26T16:18:05.455Z,25.63
2022-10-26T16:21:50.706Z,30.43
2022-10-26T16:25:40.240Z,26.97
2022-10-26T16:29:23.392Z,28.30
2022-10-26T16:33:06.848Z,29.33
2022-10-26T16:36:48.923Z,25.60
2022-10-26T16:40:31.137Z,28.93
2022-10-26T16:44:13.762Z,25.17
2022-10-26T16:47:55.659Z,30.23
2022-10-26T16:51:37.526Z,24.07
2022-10-26T16:55:24.405Z,33.10
2022-10-26T16:59:06.205Z,25.60
2022-10-26T17:02:47.953Z,27.40
2022-10-26T17:06:29.646Z,31.30
2022-10-26T17:10:11.386Z,25.90
2022-10-26T17:13:54.990Z,34.33
2022-10-26T17:17:36.736Z,28.53
2022-10-26T17:21:27.181Z,23.17
2022-10-26T17:25:09.117Z,32.97
2022-10-26T17:28:52.238Z,30.83
2022-10-26T17:32:34.028Z,25.13
2022-10-26T17:36:16.831Z,29.13
2022-10-26T17:39:58.561Z,32.67
2022-10-26T17:43:41.241Z,27.23
2022-10-26T17:47:23.041Z,32.50
2022-10-26T17:51:07.432Z,29.40
2022-10-26T17:54:49.319Z,30.73
2022-10-26T17:58:31.858Z,30.37
2022-10-26T18:02:13.835Z,27.47
2022-10-26T18:05:55.948Z,28.60
2022-10-26T18:09:37.877Z,36.20
2022-10-26T18:13:19.802Z,31.93
2022-10-26T18:17:01.594Z,37.03
2022-10-26T18:20:43.363Z,26.40
2022-10-26T18:24:25.272Z,25.23
2022-10-26T18:28:07.106Z,31.70
2022-10-26T18:31:50.193Z,33.83
2022-10-26T18:35:32.322Z,26.73
2022-10-26T18:39:14.103Z,27.80
2022-10-26T18:42:55.814Z,32.63
2022-10-26T18:46:42.573Z,32.57
2022-10-26T18:50:24.378Z,33.20
2022-10-26T18:54:06.181Z,25.73
2022-10-26T18:57:50.346Z,31.17
2022-10-26T19:01:35.258Z,27.00
2022-10-26T19:05:17.536Z,32.50
2022-10-26T19:09:00.148Z,29.57
2022-10-26T19:12:41.892Z,32.23
2022-10-26T19:16:44.706Z,38.40
2022-10-26T19:20:27.446Z,40.90
2022-10-26T19:24:19.176Z,35.23
2022-10-26T19:28:01.754Z,30.13
2022-10-26T19:31:45.938Z,34.63
2022-10-26T19:35:28.295Z,29.53
2022-10-26T19:39:10.499Z,32.37
2022-10-26T19:42:53.591Z,36.33
2022-10-26T19:46:35.617Z,29.20
2022-10-26T19:50:17.415Z,28.80
2022-10-26T19:54:03.415Z,28.20
2022-10-26T19:57:46.110Z,34.27
2022-10-26T20:01:28.235Z,29.47
2022-10-26T20:05:10.303Z,29.37
2022-10-26T20:08:52.054Z,31.83
2022-10-26T20:12:33.776Z,30.73
2022-10-26T20:16:26.424Z,33.73
2022-10-26T20:20:08.780Z,37.37
2022-10-26T20:23:50.730Z,29.50
2022-10-26T20:27:32.414Z,37.80
2022-10-26T20:31:14.324Z,25.70
2022-10-26T20:34:56.113Z,28.50
2022-10-26T20:38:39.535Z,32.67
2022-10-26T20:42:26.802Z,31.37
2022-10-26T20:46:17.937Z,29.97
2022-10-26T20:49:59.934Z,38.83
2022-10-26T20:53:58.037Z,36.73
2022-10-26T20:57:43.082Z,35.60
2022-10-26T21:01:33.568Z,29.30
2022-10-26T21:05:18.259Z,37.67
2022-10-26T21:09:00.086Z,31.47
2022-10-26T21:12:42.439Z,36.50
2022-10-26T21:16:24.179Z,34.87
2022-10-26T21:20:06.567Z,33.13
2022-10-26T21:23:48.321Z,34.07
2022-10-26T21:27:30.076Z,28.57
2022-10-26T21:31:14.035Z,37.37
2022-10-26T21:34:55.806Z,33.90
2022-10-26T21:38:37.867Z,41.00
2022-10-26T21:42:20.375Z,40.67
2022-10-26T21:46:03.827Z,36.07
2022-10-26T21:49:45.946Z,28.53
2022-10-26T21:53:28.073Z,32.87
2022-10-26T21:57:09.887Z,34.50
2022-10-26T22:00:51.790Z,30.47
2022-10-26T22:04:33.826Z,34.97
2022-10-26T22:08:15.622Z,27.63
2022-10-26T22:11:57.402Z,33.87
2022-10-26T22:15:39.248Z,29.40
2022-10-26T22:19:20.949Z,28.73
2022-10-26T22:26:47.111Z,35.33
2022-10-26T22:30:28.901Z,32.57
2022-10-26T22:34:15.993Z,30.43
2022-10-26T22:37:57.846Z,31.87
2022-10-26T22:41:39.910Z,34.10
2022-10-26T22:45:21.699Z,27.27
2022-10-26T22:49:03.664Z,25.10
2022-10-26T22:52:45.396Z,22.83
2022-10-26T22:56:29.206Z,27.83
2022-10-26T23:00:11.414Z,27.33
2022-10-26T23:03:56.125Z,22.27
2022-10-26T23:07:37.924Z,21.87
2022-10-26T23:11:21.660Z,23.17
2022-10-26T23:15:03.664Z,23.77
2022-10-26T23:18:45.409Z,30.00
2022-10-26T23:22:27.126Z,22.30
2022-10-26T23:26:14.543Z,24.57
2022-10-26T23:29:56.270Z,33.83
2022-10-26T23:33:38.029Z,35.00
2022-10-26T23:37:19.761Z,26.23
2022-10-26T23:41:01.467Z,33.70
2022-10-26T23:44:43.228Z,29.13
2022-10-26T23:48:24.983Z,30.33
2022-10-26T23:52:06.775Z,34.40
2022-10-26T23:55:48.816Z,26.47
2022-10-26T23:59:30.562Z,29.10
